Time;durP1;ratioP1;P1;durP2;ratioP2;P2;SDS_P1;SDS_P2;PMS_P1;PMS_P2;Temp;Humidity;BMP_temperature;BMP_pressure;BME280_temperature;BME280_humidity;BME280_pressure;Samples;Min_cycle;Max_cycle;Signal;HPM_P1;HPM_P2
2022/11/13 00:01:28;;;;;;;0.10;0.10;;;4.20;99.90;2.50;97665.00;;;;5046789;28;20572;-74
2022/11/13 00:04:15;;;;;;;0.10;0.10;;;4.10;99.90;2.50;97642.00;;;;5043429;28;20336;-74
2022/11/13 00:07:02;;;;;;;0.10;0.10;;;4.10;99.90;2.50;97565.00;;;;5039481;28;20213;-75
2022/11/13 00:09:50;;;;;;;0.10;0.10;;;4.20;99.90;2.40;97551.00;;;;5056909;28;20236;-74
2022/11/13 00:12:37;;;;;;;0.10;0.10;;;4.10;99.90;2.40;97552.00;;;;5045892;28;20214;-75
2022/11/13 00:15:23;;;;;;;0.10;0.10;;;4.10;99.90;2.40;97578.00;;;;5040018;28;20205;-75
2022/11/13 00:18:10;;;;;;;0.10;0.10;;;4.10;99.90;2.40;97475.00;;;;5048303;28;20304;-75
2022/11/13 00:20:57;;;;;;;0.10;0.10;;;4.10;99.90;2.50;97481.00;;;;5045809;28;20208;-75
2022/11/13 00:23:45;;;;;;;0.10;0.10;;;4.30;99.90;2.40;97480.00;;;;5047362;28;20205;-75
2022/11/13 00:26:33;;;;;;;0.10;0.10;;;4.10;99.90;2.30;97457.00;;;;5037148;28;20202;-75
2022/11/13 00:29:19;;;;;;;0.10;0.10;;;4.00;99.90;2.20;97471.00;;;;5054376;28;20228;-74
2022/11/13 00:32:07;;;;;;;0.10;0.10;;;4.00;99.90;2.20;97470.00;;;;5058818;28;20214;-74
2022/11/13 00:34:53;;;;;;;0.10;0.10;;;4.00;99.90;2.20;97500.00;;;;5055537;28;20229;-75
2022/11/13 00:37:40;;;;;;;0.10;0.10;;;4.00;99.90;2.00;97470.00;;;;5057170;28;20212;-74
2022/11/13 00:40:27;;;;;;;0.10;0.10;;;3.90;99.90;2.10;97498.00;;;;5072124;28;20216;-75
2022/11/13 00:43:15;;;;;;;0.10;0.10;;;3.90;99.90;1.80;97512.00;;;;5052395;28;20283;-74
2022/11/13 00:46:02;;;;;;;0.10;0.10;;;3.90;99.90;2.00;97439.00;;;;5042768;28;20202;-74
2022/11/13 00:48:48;;;;;;;0.10;0.10;;;3.70;99.90;1.70;97438.00;;;;5049411;28;20322;-76
2022/11/13 00:51:35;;;;;;;0.10;0.10;;;3.50;99.90;1.70;97503.00;;;;5054014;28;20213;-74
2022/11/13 00:54:22;;;;;;;0.10;0.10;;;3.50;99.90;1.70;97484.00;;;;5054165;28;20210;-74
2022/11/13 00:57:09;;;;;;;0.10;0.10;;;3.50;99.90;1.90;97577.00;;;;5053070;28;20563;-74
2022/11/13 00:59:57;;;;;;;0.10;0.10;;;3.60;99.90;1.90;97490.00;;;;5070938;22;20244;-76
2022/11/13 01:02:44;;;;;;;0.10;0.10;;;3.60;99.90;1.80;97479.00;;;;5049379;28;20209;-74
2022/11/13 01:05:31;;;;;;;0.08;0.08;;;3.60;99.90;1.80;97467.00;;;;5054867;28;20212;-74
2022/11/13 01:08:17;;;;;;;0.10;0.10;;;3.60;99.90;1.90;97502.00;;;;5053577;28;20295;-74
2022/11/13 01:11:11;;;;;;;0.10;0.10;;;3.60;99.90;1.90;97445.00;;;;5033536;28;20300;-77
2022/11/13 01:13:58;;;;;;;0.10;0.10;;;3.70;99.90;1.90;97371.00;;;;5034314;28;20201;-78
2022/11/13 01:16:46;;;;;;;0.10;0.10;;;3.70;99.90;1.90;97373.00;;;;5033583;28;20218;-77
2022/11/13 01:19:32;;;;;;;0.10;0.10;;;3.70;99.90;1.90;97357.00;;;;5026932;28;20238;-77
2022/11/13 01:22:19;;;;;;;0.10;0.10;;;3.80;99.90;1.70;97310.00;;;;5033734;28;20205;-76
2022/11/13 01:25:07;;;;;;;0.10;0.10;;;3.50;99.90;1.60;97352.00;;;;5034047;28;20209;-77
2022/11/13 01:27:54;;;;;;;0.10;0.10;;;3.40;99.90;1.50;97292.00;;;;5037340;28;20253;-77
2022/11/13 01:30:41;;;;;;;0.10;0.10;;;3.40;99.90;1.40;97283.00;;;;5033905;28;20786;-76
2022/11/13 01:33:29;;;;;;;0.10;0.10;;;3.20;99.90;1.40;97267.00;;;;5032566;28;21046;-78
2022/11/13 01:36:19;;;;;;;0.10;0.10;;;3.20;99.90;1.40;97322.00;;;;5029697;28;20570;-77
2022/11/13 01:39:06;;;;;;;0.10;0.10;;;3.20;99.90;1.30;97252.00;;;;5025443;28;20631;-77
2022/11/13 01:41:53;;;;;;;0.10;0.10;;;3.10;99.90;1.40;97289.00;;;;5035982;28;20231;-77
2022/11/13 01:44:50;;;;;;;0.10;0.10;;;3.10;99.90;1.30;97279.00;;;;5034825;28;20213;-78
2022/11/13 01:47:37;;;;;;;0.10;0.10;;;3.10;99.90;1.30;97280.00;;;;5033652;28;20206;-79
2022/11/13 01:50:26;;;;;;;0.10;0.10;;;3.10;99.90;1.30;97261.00;;;;5028574;28;20234;-79
2022/11/13 01:53:13;;;;;;;0.10;0.10;;;3.10;99.90;1.20;97271.00;;;;5037249;28;20305;-78
2022/11/13 01:55:59;;;;;;;0.10;0.10;;;2.90;99.90;1.10;97186.00;;;;5032342;28;20276;-76
2022/11/13 01:58:54;;;;;;;0.10;0.10;;;2.80;99.90;1.10;97246.00;;;;5032703;28;20680;-78
2022/11/13 02:01:41;;;;;;;0.10;0.10;;;2.90;99.90;1.20;97218.00;;;;5038703;28;20795;-78
2022/11/13 02:04:30;;;;;;;0.10;0.10;;;3.00;99.90;1.20;97247.00;;;;5038863;28;20201;-77
2022/11/13 02:07:21;;;;;;;0.10;0.10;;;3.00;99.90;1.30;97259.00;;;;5037274;28;20671;-77
2022/11/13 02:10:09;;;;;;;0.10;0.10;;;3.00;99.90;1.20;97294.00;;;;5033365;28;20225;-76
2022/11/13 02:12:56;;;;;;;0.10;0.10;;;2.90;99.90;1.10;97212.00;;;;5031756;28;20545;-77
2022/11/13 02:15:45;;;;;;;0.10;0.10;;;2.90;99.90;1.10;97213.00;;;;5029678;28;20326;-77
2022/11/13 02:18:34;;;;;;;0.17;0.17;;;2.80;99.90;1.00;97207.00;;;;5033662;28;20213;-77
2022/11/13 02:21:34;;;;;;;0.10;0.10;;;2.80;99.90;1.00;97218.00;;;;5033462;28;20206;-77
2022/11/13 02:24:27;;;;;;;0.10;0.10;;;2.80;99.90;1.10;97223.00;;;;5034135;28;20206;-77
2022/11/13 02:27:23;;;;;;;0.10;0.10;;;2.90;99.90;0.90;97241.00;;;;5034669;28;20580;-77
2022/11/13 02:30:21;;;;;;;0.10;0.10;;;2.80;99.90;1.00;97224.00;;;;5033596;28;20256;-77
2022/11/13 02:33:26;;;;;;;0.10;0.10;;;2.70;99.90;0.90;97180.00;;;;5032410;28;20209;-77
2022/11/13 02:36:14;;;;;;;0.10;0.10;;;2.70;99.90;0.70;97245.00;;;;5033632;28;20253;-76
2022/11/13 02:39:07;;;;;;;0.10;0.10;;;2.70;99.90;0.80;97236.00;;;;5030722;28;20304;-77
2022/11/13 02:41:55;;;;;;;0.10;0.10;;;2.60;99.90;0.80;97270.00;;;;5032053;28;20577;-76
2022/11/13 02:44:41;;;;;;;0.10;0.10;;;2.50;99.90;0.80;97277.00;;;;5025957;28;20226;-77
2022/11/13 02:47:28;;;;;;;0.10;0.10;;;2.70;99.90;0.90;97231.00;;;;5040103;28;20214;-77
2022/11/13 02:50:17;;;;;;;0.10;0.10;;;2.70;99.90;1.00;97262.00;;;;5032326;28;20249;-74
2022/11/13 02:53:04;;;;;;;0.10;0.10;;;2.70;99.90;1.10;97264.00;;;;5036369;28;20237;-74
2022/11/13 02:55:51;;;;;;;0.10;0.10;;;2.90;99.90;1.20;97276.00;;;;5034947;28;20206;-74
2022/11/13 02:58:40;;;;;;;0.10;0.10;;;3.00;99.90;1.10;97274.00;;;;5034091;28;20206;-74
2022/11/13 03:01:26;;;;;;;0.10;0.10;;;2.90;99.90;1.00;97322.00;;;;5036814;28;20253;-76
2022/11/13 03:04:13;;;;;;;0.10;0.10;;;2.90;99.90;0.90;97289.00;;;;5033370;28;20210;-76
2022/11/13 03:07:00;;;;;;;0.10;0.10;;;2.80;99.90;0.90;97257.00;;;;5032229;28;20209;-76
2022/11/13 03:09:47;;;;;;;0.10;0.10;;;2.80;99.90;0.90;97266.00;;;;5032170;28;20607;-74
2022/11/13 03:12:34;;;;;;;0.10;0.10;;;2.80;99.90;0.80;97252.00;;;;5035729;28;20205;-74
2022/11/13 03:15:22;;;;;;;0.10;0.10;;;2.60;99.90;0.70;97235.00;;;;5033024;28;20318;-75
2022/11/13 03:18:10;;;;;;;0.10;0.10;;;2.50;99.90;0.60;97220.00;;;;5031666;28;20202;-75
2022/11/13 03:20:57;;;;;;;0.10;0.10;;;2.40;99.90;0.60;97209.00;;;;5032526;28;20218;-75
2022/11/13 03:23:44;;;;;;;0.10;0.10;;;2.40;99.90;0.50;97222.00;;;;5031876;28;20206;-75
2022/11/13 03:26:31;;;;;;;0.10;0.10;;;2.40;99.90;0.60;97225.00;;;;5030170;28;20209;-75
2022/11/13 03:29:18;;;;;;;0.10;0.10;;;2.40;99.90;0.70;97220.00;;;;5031556;28;20939;-75
2022/11/13 03:32:06;;;;;;;0.10;0.10;;;2.50;99.90;0.80;97224.00;;;;5034706;28;20278;-75
2022/11/13 03:34:53;;;;;;;0.10;0.10;;;2.50;99.90;0.80;97229.00;;;;5031887;28;20688;-75
2022/11/13 03:37:40;;;;;;;0.10;0.10;;;2.60;99.90;0.80;97233.00;;;;5029717;28;20602;-76
2022/11/13 03:40:27;;;;;;;0.10;0.10;;;2.60;99.90;0.80;97206.00;;;;5028447;28;20233;-76
2022/11/13 03:43:14;;;;;;;0.10;0.10;;;2.50;99.90;0.70;97241.00;;;;5031001;28;20214;-75
2022/11/13 03:46:01;;;;;;;0.10;0.10;;;2.50;99.90;0.80;97221.00;;;;5027948;28;20209;-75
2022/11/13 03:48:49;;;;;;;0.10;0.10;;;2.60;99.90;0.80;97227.00;;;;5032426;28;20209;-75
2022/11/13 03:51:36;;;;;;;0.10;0.10;;;2.60;99.90;0.70;97233.00;;;;5025406;28;20214;-75
2022/11/13 03:54:23;;;;;;;0.10;0.10;;;2.60;99.90;0.80;97252.00;;;;5034037;28;20202;-75
2022/11/13 03:57:09;;;;;;;0.10;0.10;;;2.60;99.90;0.80;97240.00;;;;5029474;28;20205;-75
2022/11/13 03:59:56;;;;;;;0.10;0.10;;;2.70;99.90;0.80;97259.00;;;;5031281;28;20233;-75
2022/11/13 04:02:43;;;;;;;0.10;0.10;;;2.70;99.90;1.00;97276.00;;;;5030972;28;20720;-75
2022/11/13 04:05:31;;;;;;;0.10;0.10;;;2.80;99.90;1.00;97323.00;;;;5031097;28;20257;-74
2022/11/13 04:08:18;;;;;;;0.10;0.10;;;2.80;99.90;0.90;97286.00;;;;5029730;28;20300;-74
2022/11/13 04:11:10;;;;;;;0.10;0.10;;;2.80;99.90;0.90;97312.00;;;;5030173;28;20246;-75
2022/11/13 04:13:57;;;;;;;0.10;0.10;;;2.80;99.90;0.80;97286.00;;;;5019228;28;20257;-74
2022/11/13 04:16:43;;;;;;;0.10;0.10;;;2.70;99.90;0.40;97244.00;;;;5025206;28;20210;-75
2022/11/13 04:19:30;;;;;;;0.10;0.10;;;2.70;99.90;0.80;97228.00;;;;5025446;28;20615;-74
2022/11/13 04:22:18;;;;;;;0.10;0.10;;;2.80;99.90;0.80;97183.00;;;;5030462;28;20202;-74
2022/11/13 04:25:07;;;;;;;0.15;0.15;;;2.70;99.90;0.60;97091.00;;;;5031687;28;20218;-76
2022/11/13 04:27:54;;;;;;;0.10;0.10;;;2.50;99.90;0.70;97181.00;;;;5032404;28;20972;-74
2022/11/13 04:30:40;;;;;;;0.10;0.10;;;2.60;99.90;0.70;97196.00;;;;5037957;28;20240;-76
2022/11/13 04:33:28;;;;;;;0.10;0.10;;;2.60;99.90;0.60;97160.00;;;;5024767;28;20206;-76
2022/11/13 04:36:14;;;;;;;0.10;0.10;;;2.50;99.90;0.70;97160.00;;;;5024210;28;20534;-76
2022/11/13 04:39:03;;;;;;;0.10;0.10;;;2.50;99.90;0.80;97182.00;;;;5030367;28;20240;-78
2022/11/13 04:44:54;;;;;;;0.10;0.10;;;2.60;99.90;0.50;97151.00;;;;5031324;28;20292;-77
2022/11/13 04:47:40;;;;;;;0.10;0.10;;;2.30;99.90;0.30;97143.00;;;;5028289;28;20221;-77
2022/11/13 04:50:27;;;;;;;0.10;0.10;;;2.10;99.90;0.20;97220.00;;;;5030421;28;20232;-75
2022/11/13 04:53:14;;;;;;;0.10;0.10;;;2.10;99.90;0.10;97183.00;;;;5032299;28;20289;-75
2022/11/13 04:56:02;;;;;;;0.10;0.10;;;1.90;99.90;0.10;97170.00;;;;5029013;28;20317;-75
2022/11/13 04:58:49;;;;;;;0.10;0.10;;;2.00;99.90;0.10;97164.00;;;;5030386;28;20205;-76
2022/11/13 05:01:36;;;;;;;0.10;0.10;;;1.90;99.90;0.10;97202.00;;;;5025276;28;20214;-75
2022/11/13 05:04:23;;;;;;;0.20;0.20;;;2.00;99.90;0.20;97203.00;;;;5033842;28;20211;-75
2022/11/13 05:07:10;;;;;;;0.10;0.10;;;2.10;99.90;0.20;97253.00;;;;5031662;28;20230;-75
2022/11/13 05:09:56;;;;;;;0.10;0.10;;;2.10;99.90;0.30;97217.00;;;;5027224;28;20229;-75
2022/11/13 05:12:45;;;;;;;0.10;0.10;;;2.20;99.90;0.40;97219.00;;;;5029054;28;20210;-75
2022/11/13 05:15:31;;;;;;;0.10;0.10;;;2.20;99.90;0.40;97213.00;;;;5027681;28;20723;-75
2022/11/13 05:18:18;;;;;;;0.20;0.20;;;2.20;99.90;0.40;97202.00;;;;5026093;28;20210;-75
2022/11/13 05:21:06;;;;;;;0.10;0.10;;;2.30;99.90;0.40;97180.00;;;;5026354;28;20285;-74
2022/11/13 05:23:53;;;;;;;0.10;0.10;;;2.20;99.90;0.30;97148.00;;;;5024282;28;20236;-74
2022/11/13 05:26:40;;;;;;;0.10;0.10;;;2.10;99.90;0.30;97189.00;;;;5026495;28;20269;-74
2022/11/13 05:29:28;;;;;;;0.10;0.10;;;2.10;99.90;0.30;97180.00;;;;5025239;28;20273;-75
2022/11/13 05:32:15;;;;;;;0.10;0.10;;;2.10;99.90;0.30;97195.00;;;;5033380;28;20253;-75
2022/11/13 05:35:02;;;;;;;0.10;0.10;;;2.10;99.90;0.30;97088.00;;;;5030146;28;20274;-75
2022/11/13 05:37:48;;;;;;;0.10;0.10;;;2.20;99.90;0.20;97078.00;;;;5033309;28;20257;-77
2022/11/13 05:40:35;;;;;;;0.10;0.10;;;2.10;99.90;0.20;97092.00;;;;5029440;28;20253;-75
2022/11/13 05:43:22;;;;;;;0.10;0.10;;;2.20;99.90;0.20;97077.00;;;;5034572;28;20215;-75
2022/11/13 05:46:13;;;;;;;0.10;0.10;;;2.10;99.90;0.10;97054.00;;;;5028698;28;20209;-74
2022/11/13 05:49:01;;;;;;;0.10;0.10;;;1.90;99.90;0.00;97046.00;;;;5029179;28;20237;-75
2022/11/13 05:51:48;;;;;;;0.10;0.10;;;1.90;99.90;-0.30;97041.00;;;;5029070;28;20230;-75
2022/11/13 05:54:35;;;;;;;0.10;0.10;;;1.60;99.90;-0.40;97023.00;;;;5031329;28;20214;-75
2022/11/13 05:57:22;;;;;;;0.10;0.10;;;1.50;99.90;-0.40;97035.00;;;;5032007;28;20333;-75
2022/11/13 06:00:10;;;;;;;0.13;0.13;;;1.50;99.90;-0.50;97013.00;;;;5033283;28;20241;-75
2022/11/13 06:03:00;;;;;;;0.10;0.10;;;1.40;99.90;-0.40;97076.00;;;;5031533;28;20226;-75
2022/11/13 06:05:47;;;;;;;0.10;0.10;;;1.50;99.90;-0.30;97052.00;;;;5031184;28;20692;-77
2022/11/13 06:08:33;;;;;;;0.08;0.08;;;1.60;99.90;-0.20;97052.00;;;;5022766;28;20569;-78
2022/11/13 06:11:24;;;;;;;0.15;0.15;;;1.70;99.90;-0.10;97039.00;;;;5028528;28;20273;-77
2022/11/13 06:14:11;;;;;;;0.10;0.10;;;1.80;99.90;-0.10;97036.00;;;;5033328;28;20294;-77
2022/11/13 06:16:57;;;;;;;0.10;0.10;;;1.90;99.90;-0.20;97039.00;;;;5032325;28;20194;-76
2022/11/13 06:19:47;;;;;;;0.10;0.10;;;1.80;99.90;-0.30;97028.00;;;;5033275;28;20248;-76
2022/11/13 06:22:33;;;;;;;0.10;0.10;;;1.60;99.90;-0.20;97043.00;;;;5030034;28;20285;-76
2022/11/13 06:25:20;;;;;;;0.10;0.10;;;1.70;99.90;-0.40;97033.00;;;;5033577;28;20568;-77
2022/11/13 06:28:07;;;;;;;0.10;0.10;;;1.60;99.90;-0.60;97013.00;;;;5030461;28;20617;-77
2022/11/13 06:30:53;;;;;;;0.10;0.10;;;1.20;99.90;-0.80;96985.00;;;;5026631;28;20253;-77
2022/11/13 06:33:42;;;;;;;0.10;0.10;;;1.10;99.90;-0.80;96977.00;;;;5031274;28;20696;-77
2022/11/13 06:36:34;;;;;;;0.10;0.10;;;1.10;99.90;-0.70;97026.00;;;;5026654;28;20580;-78
2022/11/13 06:39:20;;;;;;;0.10;0.10;;;1.30;99.90;-0.60;97018.00;;;;5028086;28;20738;-77
2022/11/13 06:42:07;;;;;;;0.10;0.10;;;1.30;99.90;-0.60;97001.00;;;;5030209;28;20601;-76
2022/11/13 06:44:54;;;;;;;0.10;0.10;;;1.30;99.90;-0.60;96976.00;;;;5026963;28;20265;-76
2022/11/13 06:47:41;;;;;;;0.10;0.10;;;1.30;99.90;-0.70;96982.00;;;;5023218;28;20222;-77
2022/11/13 06:50:27;;;;;;;0.10;0.10;;;1.20;99.90;-0.80;96972.00;;;;5023087;28;20221;-78
2022/11/13 06:53:16;;;;;;;0.10;0.10;;;1.10;99.90;-0.80;96989.00;;;;5030065;28;20317;-77
2022/11/13 06:56:06;;;;;;;0.15;0.15;;;1.10;99.90;-0.70;96930.00;;;;5029664;28;20206;-77
2022/11/13 06:58:57;;;;;;;0.10;0.10;;;1.20;99.90;-0.60;96993.00;;;;5024460;28;20230;-78
2022/11/13 07:01:43;;;;;;;0.10;0.10;;;1.30;99.90;-0.90;97005.00;;;;5038971;28;20298;-74
2022/11/13 07:04:30;;;;;;;0.10;0.10;;;1.40;99.90;-0.30;97039.00;;;;5037042;28;20253;-74
2022/11/13 07:07:17;;;;;;;0.10;0.10;;;1.50;99.90;-0.20;97001.00;;;;5034076;28;20342;-74
2022/11/13 07:10:07;;;;;;;0.10;0.10;;;1.60;99.90;-0.30;96985.00;;;;5029472;28;20237;-73
2022/11/13 07:12:53;;;;;;;0.10;0.10;;;1.60;99.90;-0.20;96990.00;;;;5037341;28;20326;-74
2022/11/13 07:15:40;;;;;;;0.20;0.20;;;1.60;99.90;-0.20;96990.00;;;;5034194;28;20209;-73
2022/11/13 07:18:27;;;;;;;0.10;0.10;;;1.70;99.90;-0.30;96870.00;;;;5041121;28;20201;-73
2022/11/13 07:21:14;;;;;;;0.10;0.10;;;1.60;99.90;-0.20;96962.00;;;;5036178;28;20256;-73
2022/11/13 07:24:01;;;;;;;0.10;0.10;;;1.70;99.90;-0.10;96950.00;;;;5030646;28;20240;-71
2022/11/13 07:26:49;;;;;;;0.10;0.10;;;1.90;99.90;-0.10;96953.00;;;;5030632;28;20213;-73
2022/11/13 07:29:37;;;;;;;0.10;0.10;;;1.90;99.90;-0.20;96940.00;;;;5035079;28;20807;-73
2022/11/13 07:32:24;;;;;;;0.10;0.10;;;1.60;99.90;-0.20;96895.00;;;;5033180;28;20994;-73
2022/11/13 07:35:12;;;;;;;0.10;0.10;;;1.70;99.90;-0.20;96937.00;;;;5030535;28;20328;-72
2022/11/13 07:37:59;;;;;;;0.10;0.10;;;1.60;99.90;-0.20;96947.00;;;;5030028;28;20213;-73
2022/11/13 07:40:45;;;;;;;0.10;0.10;;;1.70;99.90;-0.10;96942.00;;;;5032936;28;20300;-74
2022/11/13 07:43:34;;;;;;;0.10;0.10;;;1.80;99.90;0.00;96953.00;;;;5026768;28;20313;-71
2022/11/13 07:46:21;;;;;;;0.10;0.10;;;1.80;99.90;0.10;96979.00;;;;5021680;28;20213;-70
2022/11/13 07:49:07;;;;;;;0.10;0.10;;;1.90;99.90;0.10;96945.00;;;;5027533;28;20233;-70
2022/11/13 07:51:54;;;;;;;0.10;0.10;;;1.90;99.90;0.10;96944.00;;;;5025900;28;20361;-70
2022/11/13 07:54:41;;;;;;;0.10;0.10;;;1.90;99.90;0.20;96943.00;;;;5031246;28;20244;-70
2022/11/13 07:57:27;;;;;;;0.20;0.20;;;2.00;99.90;0.20;96950.00;;;;5028460;28;20444;-72
2022/11/13 08:00:17;;;;;;;0.10;0.10;;;2.10;99.90;0.40;96981.00;;;;5030381;28;20233;-75
2022/11/13 08:03:09;;;;;;;0.10;0.10;;;2.30;99.90;0.60;96974.00;;;;5032864;28;20203;-76
2022/11/13 08:06:01;;;;;;;0.10;0.10;;;2.40;99.90;0.60;96965.00;;;;5031427;28;20355;-77
2022/11/13 08:08:49;;;;;;;0.10;0.10;;;2.40;99.90;0.80;96964.00;;;;5030040;28;20228;-78
2022/11/13 08:11:36;;;;;;;0.10;0.10;;;2.60;99.90;0.80;96970.00;;;;5031623;28;20289;-73
2022/11/13 08:14:22;;;;;;;0.10;0.10;;;2.60;99.90;0.80;96958.00;;;;5029967;28;20708;-72
2022/11/13 08:17:10;;;;;;;0.10;0.10;;;2.60;99.90;0.90;96982.00;;;;5030728;28;20784;-71
2022/11/13 08:19:57;;;;;;;0.10;0.10;;;2.70;99.90;1.10;96985.00;;;;5030907;28;20889;-71
2022/11/13 08:22:44;;;;;;;0.10;0.10;;;2.80;99.90;1.20;97006.00;;;;5024900;28;20334;-72
2022/11/13 08:25:33;;;;;;;0.10;0.10;;;3.00;99.90;1.40;97010.00;;;;5028758;28;20237;-72
2022/11/13 08:28:20;;;;;;;0.10;0.10;;;3.10;99.90;1.60;96959.00;;;;5029057;28;20222;-72
2022/11/13 08:31:11;;;;;;;0.10;0.10;;;3.30;99.90;1.80;97047.00;;;;5030840;28;20217;-72
2022/11/13 08:33:59;;;;;;;0.10;0.10;;;3.50;99.90;2.00;97061.00;;;;5032657;28;20202;-72
2022/11/13 08:36:48;;;;;;;0.10;0.10;;;3.70;99.90;2.20;97080.00;;;;5031353;28;20209;-72
2022/11/13 08:39:36;;;;;;;0.10;0.10;;;3.80;99.90;2.30;97071.00;;;;5024671;28;20225;-72
2022/11/13 08:42:23;;;;;;;0.10;0.10;;;4.00;99.90;2.40;97078.00;;;;5029199;28;20207;-72
2022/11/13 08:45:11;;;;;;;0.10;0.10;;;4.10;99.90;2.40;97052.00;;;;5029973;28;20233;-72
2022/11/13 08:48:00;;;;;;;0.10;0.10;;;4.10;99.90;2.50;97083.00;;;;5025540;28;20202;-72
2022/11/13 08:50:52;;;;;;;0.10;0.10;;;4.20;99.90;2.40;97054.00;;;;5030313;28;20222;-72
2022/11/13 08:53:39;;;;;;;0.10;0.10;;;4.10;99.90;2.50;97070.00;;;;5029274;28;20574;-72
2022/11/13 08:56:26;;;;;;;0.10;0.10;;;4.20;99.90;2.60;96918.00;;;;5028521;28;20217;-72
2022/11/13 08:59:13;;;;;;;0.10;0.10;;;4.30;99.90;2.80;97128.00;;;;5029844;28;20237;-72
2022/11/13 09:02:00;;;;;;;0.10;0.10;;;4.40;99.90;2.90;97124.00;;;;5021822;28;20206;-72
2022/11/13 09:04:47;;;;;;;0.10;0.10;;;4.50;99.90;3.00;97103.00;;;;5024241;28;20514;-72
2022/11/13 09:07:35;;;;;;;0.10;0.10;;;4.60;99.90;3.10;97127.00;;;;5027888;28;20332;-72
2022/11/13 09:10:22;;;;;;;0.10;0.10;;;4.70;99.90;3.30;97129.00;;;;5035340;28;20218;-72
2022/11/13 09:13:10;;;;;;;0.10;0.10;;;4.90;99.90;3.40;97132.00;;;;5031784;28;20300;-72
2022/11/13 09:15:58;;;;;;;0.10;0.10;;;5.00;99.90;3.60;97141.00;;;;5034413;28;20246;-73
2022/11/13 09:18:45;;;;;;;0.10;0.10;;;5.20;99.90;3.70;97151.00;;;;5033048;28;20226;-72
2022/11/13 09:21:31;;;;;;;0.10;0.10;;;5.20;99.90;3.70;97141.00;;;;5035369;28;20747;-72
2022/11/13 09:24:20;;;;;;;0.10;0.10;;;5.30;99.90;3.80;97152.00;;;;5035263;28;20580;-72
2022/11/13 09:27:06;;;;;;;0.10;0.10;;;5.40;99.90;3.90;97144.00;;;;5033434;28;20280;-72
2022/11/13 09:29:53;;;;;;;0.10;0.10;;;5.50;99.90;4.00;97146.00;;;;5034881;28;20291;-72
2022/11/13 09:32:41;;;;;;;0.10;0.10;;;5.60;99.90;4.10;97155.00;;;;5033768;28;20225;-72
2022/11/13 09:35:35;;;;;;;0.10;0.10;;;5.60;99.90;4.20;97171.00;;;;5027285;28;20329;-74
2022/11/13 09:38:22;;;;;;;0.10;0.10;;;5.80;99.90;4.40;97113.00;;;;5032136;28;20747;-72
2022/11/13 09:41:14;;;;;;;0.10;0.10;;;5.90;99.90;4.50;97169.00;;;;5035490;28;20302;-72
2022/11/13 09:44:05;;;;;;;0.10;0.10;;;6.00;99.90;4.60;97180.00;;;;5032869;28;20257;-72
2022/11/13 09:47:02;;;;;;;0.10;0.10;;;6.10;99.90;4.70;97163.00;;;;5032984;28;20287;-72
2022/11/13 09:49:56;;;;;;;0.10;0.10;;;6.20;99.90;4.80;97162.00;;;;5032860;28;20314;-72
2022/11/13 09:52:46;;;;;;;0.10;0.10;;;6.40;99.90;4.90;97153.00;;;;5033400;28;20341;-72
2022/11/13 09:55:41;;;;;;;0.10;0.10;;;6.40;99.90;5.00;97155.00;;;;5035363;28;20571;-72
2022/11/13 09:58:46;;;;;;;0.10;0.10;;;6.50;99.90;5.10;97163.00;;;;5022413;28;20209;-72
2022/11/13 10:01:48;;;;;;;0.10;0.10;;;6.60;99.90;5.20;97176.00;;;;5030336;28;20781;-72
2022/11/13 10:04:52;;;;;;;0.10;0.10;;;6.70;99.90;5.30;97176.00;;;;5035839;28;20210;-72
2022/11/13 10:07:48;;;;;;;0.10;0.10;;;6.80;99.90;5.40;97090.00;;;;5030937;28;20206;-72
2022/11/13 10:10:51;;;;;;;0.00;0.00;;;6.90;99.90;5.60;97156.00;;;;5032517;28;20229;-73
2022/11/13 10:13:46;;;;;;;0.10;0.10;;;7.10;99.90;5.70;97158.00;;;;5028934;28;20356;-73
2022/11/13 10:16:39;;;;;;;0.00;0.00;;;7.20;99.90;5.80;97139.00;;;;5033292;28;20245;-72
2022/11/13 10:19:34;;;;;;;0.10;0.10;;;7.30;99.90;6.00;97151.00;;;;5034822;28;20238;-73
2022/11/13 10:22:30;;;;;;;0.10;0.10;;;7.40;99.90;6.10;97164.00;;;;5033787;28;20222;-71
2022/11/13 10:25:23;;;;;;;0.03;0.03;;;7.60;99.90;6.30;97165.00;;;;5032634;28;21774;-71
2022/11/13 10:28:15;;;;;;;0.10;0.10;;;7.70;99.90;6.40;97164.00;;;;5036088;28;20723;-72
2022/11/13 10:31:23;;;;;;;0.10;0.10;;;7.80;99.90;6.60;97181.00;;;;5035395;28;20559;-73
2022/11/13 10:34:12;;;;;;;0.10;0.10;;;8.00;99.90;6.70;97197.00;;;;5031064;28;20226;-73
2022/11/13 10:37:29;;;;;;;0.10;0.10;;;8.10;99.90;6.80;97152.00;;;;5029594;28;20218;-73
2022/11/13 10:40:25;;;;;;;0.10;0.10;;;8.20;99.90;6.90;97173.00;;;;5020937;28;20290;-73
2022/11/13 10:43:16;;;;;;;0.10;0.10;;;8.40;99.90;7.00;97188.00;;;;5028218;28;20299;-73
2022/11/13 10:46:05;;;;;;;0.10;0.10;;;8.40;99.90;7.10;97194.00;;;;5022081;28;20206;-74
2022/11/13 10:48:53;;;;;;;0.10;0.10;;;8.50;99.90;7.30;97199.00;;;;5024878;28;20436;-74
2022/11/13 10:51:40;;;;;;;0.10;0.10;;;8.70;99.90;7.40;97222.00;;;;5025948;28;20214;-73
2022/11/13 10:54:30;;;;;;;0.10;0.10;;;8.80;99.90;7.40;97188.00;;;;5036708;28;20229;-74
2022/11/13 10:57:32;;;;;;;0.10;0.10;;;8.90;99.90;7.60;97230.00;;;;5031687;28;20342;-74
2022/11/13 11:00:25;;;;;;;0.10;0.10;;;9.00;99.90;7.50;97208.00;;;;5024134;28;20233;-74
2022/11/13 11:03:19;;;;;;;0.10;0.10;;;9.10;99.90;7.80;97213.00;;;;5029718;28;20213;-73
2022/11/13 11:06:08;;;;;;;0.10;0.10;;;9.20;99.90;7.90;97210.00;;;;5018240;28;20226;-74
2022/11/13 11:09:07;;;;;;;0.10;0.10;;;9.30;99.90;8.00;97223.00;;;;5025783;28;20277;-74
2022/11/13 11:12:18;;;;;;;0.10;0.10;;;9.40;99.90;8.20;97234.00;;;;5023057;28;20335;-73
2022/11/13 11:15:24;;;;;;;0.10;0.10;;;9.60;99.90;8.30;97245.00;;;;5031641;28;20301;-74
2022/11/13 11:18:26;;;;;;;0.10;0.10;;;9.70;99.90;8.40;97223.00;;;;5038923;28;20213;-72
2022/11/13 11:21:20;;;;;;;0.10;0.10;;;9.80;99.90;8.50;97205.00;;;;5052343;28;20295;-72
2022/11/13 11:24:15;;;;;;;0.10;0.10;;;9.90;99.90;8.70;97232.00;;;;5043379;28;20230;-72
2022/11/13 11:27:09;;;;;;;0.10;0.10;;;10.00;99.90;8.80;97230.00;;;;5040173;28;20231;-73
2022/11/13 11:30:05;;;;;;;0.10;0.10;;;10.20;99.90;9.00;97242.00;;;;5034683;28;20230;-73
2022/11/13 11:33:06;;;;;;;0.10;0.10;;;10.30;99.90;9.10;97238.00;;;;5021781;28;20313;-72
2022/11/13 11:36:00;;;;;;;0.10;0.10;;;10.50;99.90;9.30;97233.00;;;;5024357;28;20206;-73
2022/11/13 11:39:02;;;;;;;0.10;0.10;;;10.60;99.90;12.10;97295.00;;;;5026424;28;20206;-73
2022/11/13 11:41:58;;;;;;;0.10;0.10;;;11.00;99.90;16.40;97350.00;;;;5025274;28;20700;-72
2022/11/13 11:45:05;;;;;;;0.10;0.10;;;12.40;99.90;18.90;97354.00;;;;5032344;28;20218;-73
2022/11/13 11:47:53;;;;;;;0.10;0.10;;;13.90;99.90;20.20;97384.00;;;;5025839;28;20234;-72
2022/11/13 11:50:49;;;;;;;0.00;0.00;;;15.40;99.90;21.70;97401.00;;;;5033058;28;20325;-73
2022/11/13 11:53:49;;;;;;;0.00;0.00;;;17.00;99.90;22.60;97408.00;;;;5026486;28;20245;-72
2022/11/13 11:56:44;;;;;;;0.00;0.00;;;18.60;99.90;22.60;97444.00;;;;5031031;28;20233;-73
2022/11/13 11:59:56;;;;;;;0.05;0.05;;;19.60;98.10;22.80;97388.00;;;;5023950;28;20238;-73
2022/11/13 12:03:09;;;;;;;0.00;0.00;;;20.50;97.40;23.20;97395.00;;;;5032906;28;20338;-72
2022/11/13 12:06:10;;;;;;;0.00;0.00;;;21.50;96.30;23.80;97397.00;;;;5032312;28;20724;-73
2022/11/13 12:09:08;;;;;;;0.00;0.00;;;22.50;95.60;23.70;97404.00;;;;5034553;28;20848;-73
2022/11/13 12:12:10;;;;;;;0.00;0.00;;;23.20;94.70;24.30;97438.00;;;;5026295;28;20206;-73
2022/11/13 12:15:10;;;;;;;0.00;0.00;;;24.00;91.20;24.00;97434.00;;;;5032332;28;20245;-73
2022/11/13 12:18:13;;;;;;;0.00;0.00;;;24.20;91.20;23.60;97448.00;;;;5031161;28;20292;-73
2022/11/13 12:21:23;;;;;;;0.00;0.00;;;24.00;90.30;23.00;97434.00;;;;5031113;28;20564;-72
2022/11/13 12:24:54;;;;;;;0.00;0.00;;;23.70;89.80;22.80;97427.00;;;;5029251;28;20228;-75
2022/11/13 12:27:50;;;;;;;0.00;0.00;;;23.40;88.10;22.40;97410.00;;;;5024913;28;20206;-72
2022/11/13 12:30:52;;;;;;;0.00;0.00;;;23.20;88.40;22.40;97300.00;;;;5032252;28;20226;-72
2022/11/13 12:33:51;;;;;;;0.00;0.00;;;23.10;89.50;22.10;97345.00;;;;5033681;28;20798;-72
2022/11/13 12:36:46;;;;;;;0.00;0.00;;;22.70;88.10;22.10;97334.00;;;;5041023;28;20205;-73
2022/11/13 12:39:46;;;;;;;0.00;0.00;;;22.60;89.40;21.80;97342.00;;;;5035775;28;20233;-72
2022/11/13 12:42:39;;;;;;;0.00;0.00;;;22.30;88.40;21.90;97347.00;;;;5028860;28;20209;-73
2022/11/13 12:45:50;;;;;;;0.00;0.00;;;22.30;90.20;21.80;97343.00;;;;5036869;28;20205;-73
2022/11/13 12:48:43;;;;;;;0.00;0.00;;;22.20;87.30;21.40;97309.00;;;;5034850;28;20229;-73
2022/11/13 12:51:40;;;;;;;0.00;0.00;;;21.80;89.70;21.40;97303.00;;;;5027697;28;20214;-72
2022/11/13 12:54:29;;;;;;;0.00;0.00;;;21.50;89.50;21.30;97309.00;;;;5043073;28;20245;-73